Time;durP1;ratioP1;P1;durP2;ratioP2;P2;SDS_P1;SDS_P2;PMS_P1;PMS_P2;Temp;Humidity;BMP_temperature;BMP_pressure;BME280_temperature;BME280_humidity;BME280_pressure;Samples;Min_cycle;Max_cycle;Signal;HPM_P1;HPM_P2
2023/03/31 00:00:16;;;;;;;;;;;;;;;10.51;83.78;100083.75;4121788;28;20034;-66
2023/03/31 00:02:21;;;;;;;;;;;;;;;10.51;83.83;100086.44;4119034;28;20377;-68
2023/03/31 00:04:24;;;;;;;;;;;;;;;10.50;83.99;100082.91;4137715;28;20031;-67
2023/03/31 00:06:26;;;;;;;;;;;;;;;10.45;83.92;100083.50;4122179;28;20024;-67
2023/03/31 00:08:34;;;;;;;;;;;;;;;10.45;83.96;100083.50;4122798;28;20016;-66
2023/03/31 00:10:36;;;;;;;;;;;;;;;10.43;84.22;100087.41;4122376;28;20017;-67
2023/03/31 00:12:38;;;;;;;;;;;;;;;10.42;84.29;100091.97;4120203;28;20004;-67
2023/03/31 00:14:40;;;;;;;;;;;;;;;10.44;84.77;100089.91;4122260;28;19929;-67
2023/03/31 00:16:42;;;;;;;;;;;;;;;10.44;84.36;100084.50;4121545;28;20024;-67
2023/03/31 00:18:46;;;;;;;;;;;;;;;10.48;84.14;100084.13;4122350;28;20021;-66
2023/03/31 00:20:48;;;;;;;;;;;;;;;10.44;84.07;100086.38;4122278;28;20472;-66
2023/03/31 00:22:53;;;;;;;;;;;;;;;10.42;84.24;100072.22;4121768;28;20024;-66
2023/03/31 00:24:55;;;;;;;;;;;;;;;10.42;84.44;100073.06;4122786;28;20024;-67
2023/03/31 00:26:57;;;;;;;;;;;;;;;10.43;84.55;100080.13;4120155;28;20036;-66
2023/03/31 00:28:59;;;;;;;;;;;;;;;10.42;84.40;100081.16;4121580;28;20652;-66
2023/03/31 00:31:02;;;;;;;;;;;;;;;10.42;84.09;100067.66;4122043;28;20351;-66
2023/03/31 00:33:04;;;;;;;;;;;;;;;10.40;84.28;100069.72;4121825;28;20017;-66
2023/03/31 00:35:08;;;;;;;;;;;;;;;10.37;83.94;100056.59;4127729;28;20020;-66
2023/03/31 00:37:14;;;;;;;;;;;;;;;10.39;83.98;100065.34;4120497;28;20009;-67
2023/03/31 00:39:18;;;;;;;;;;;;;;;10.40;83.89;100064.31;4122249;28;20021;-66
2023/03/31 00:41:20;;;;;;;;;;;;;;;10.38;83.60;100063.69;4121549;28;20021;-66
2023/03/31 00:43:25;;;;;;;;;;;;;;;10.36;83.82;100062.19;4121703;28;20025;-67
2023/03/31 00:45:28;;;;;;;;;;;;;;;10.35;83.66;100052.44;4121090;28;20028;-66
2023/03/31 00:47:30;;;;;;;;;;;;;;;10.37;84.04;100061.16;4125847;28;20017;-66
2023/03/31 00:49:33;;;;;;;;;;;;;;;10.40;83.65;100066.19;4120624;28;20061;-66
2023/03/31 00:51:37;;;;;;;;;;;;;;;10.39;83.73;100068.06;4121672;28;20028;-67
2023/03/31 00:53:39;;;;;;;;;;;;;;;10.35;83.43;100055.97;4120480;28;20017;-68
2023/03/31 00:55:41;;;;;;;;;;;;;;;10.36;83.58;100049.53;4121122;28;20029;-68
2023/03/31 00:57:44;;;;;;;;;;;;;;;10.36;83.34;100052.25;4142744;28;20056;-67
2023/03/31 00:59:46;;;;;;;;;;;;;;;10.37;83.13;100051.19;4122020;28;20020;-68
2023/03/31 01:01:51;;;;;;;;;;;;;;;10.40;83.17;100050.81;4121533;28;19965;-68
2023/03/31 01:03:53;;;;;;;;;;;;;;;10.40;82.97;100040.00;4121751;28;20063;-67
2023/03/31 01:05:55;;;;;;;;;;;;;;;10.39;82.67;100045.59;4121621;28;20017;-67
2023/03/31 01:07:59;;;;;;;;;;;;;;;10.33;82.37;100036.44;4127234;28;20009;-68
2023/03/31 01:10:02;;;;;;;;;;;;;;;10.29;82.86;100038.63;4122931;28;20021;-68
2023/03/31 01:12:05;;;;;;;;;;;;;;;10.25;82.77;100036.50;4121872;28;20033;-68
2023/03/31 01:14:07;;;;;;;;;;;;;;;10.24;82.64;100032.16;4122417;28;20017;-67
2023/03/31 01:16:09;;;;;;;;;;;;;;;10.24;82.65;100027.59;4121150;28;20465;-67
2023/03/31 01:18:11;;;;;;;;;;;;;;;10.25;82.61;100025.72;4126294;28;20024;-67
2023/03/31 01:20:18;;;;;;;;;;;;;;;10.24;82.33;100022.19;4121294;28;20025;-67
2023/03/31 01:22:36;;;;;;;;;;;;;;;10.22;82.15;100018.00;4121004;28;20456;-67
2023/03/31 01:25:05;;;;;;;;;;;;;;;10.17;82.39;100015.06;4110276;28;20455;-68
2023/03/31 01:27:14;;;;;;;;;;;;;;;10.13;81.97;100013.78;4126740;28;20030;-67
2023/03/31 01:29:23;;;;;;;;;;;;;;;10.09;82.22;100013.31;4126984;28;20024;-68
2023/03/31 01:31:39;;;;;;;;;;;;;;;10.07;82.45;100010.81;4121287;28;20024;-66
2023/03/31 01:34:01;;;;;;;;;;;;;;;10.06;82.06;100008.28;4106019;28;20028;-68
2023/03/31 01:36:07;;;;;;;;;;;;;;;10.06;81.86;100013.69;4121799;28;20021;-67
2023/03/31 01:38:25;;;;;;;;;;;;;;;10.05;82.08;100006.66;4122437;28;20439;-68
2023/03/31 01:40:50;;;;;;;;;;;;;;;10.04;81.71;99999.56;4121490;28;20472;-68
2023/03/31 01:42:52;;;;;;;;;;;;;;;10.04;81.63;99999.56;4120545;28;20013;-68
2023/03/31 01:44:55;;;;;;;;;;;;;;;10.02;81.65;99997.06;4121478;28;20363;-68
2023/03/31 01:46:58;;;;;;;;;;;;;;;9.98;81.72;99993.06;4121415;28;20013;-66
2023/03/31 01:49:01;;;;;;;;;;;;;;;9.96;81.96;99992.44;4120192;28;20012;-67
2023/03/31 01:51:05;;;;;;;;;;;;;;;9.95;82.01;99992.63;4122124;28;20024;-67
2023/03/31 01:53:09;;;;;;;;;;;;;;;9.93;82.12;99990.13;4121401;28;20016;-68
2023/03/31 01:55:12;;;;;;;;;;;;;;;9.93;82.11;100000.91;4143467;28;20008;-68
2023/03/31 01:57:16;;;;;;;;;;;;;;;9.90;81.59;99994.00;4125401;28;20024;-67
2023/03/31 01:59:18;;;;;;;;;;;;;;;9.90;82.18;99982.41;4121896;28;20028;-66
2023/03/31 02:01:22;;;;;;;;;;;;;;;9.87;81.94;99982.78;4121969;28;20033;-67
2023/03/31 02:03:24;;;;;;;;;;;;;;;9.86;82.06;99986.53;4122293;28;20467;-67
2023/03/31 02:05:27;;;;;;;;;;;;;;;9.87;82.30;99985.47;4146704;28;20439;-68
2023/03/31 02:07:30;;;;;;;;;;;;;;;9.88;82.11;99976.38;4124743;28;20012;-68
2023/03/31 02:09:32;;;;;;;;;;;;;;;9.86;82.33;99975.75;4124280;28;20079;-67
2023/03/31 02:11:34;;;;;;;;;;;;;;;9.87;82.49;99982.78;4123704;28;20016;-67
2023/03/31 02:13:38;;;;;;;;;;;;;;;9.85;82.25;99974.88;4129537;28;20435;-67
2023/03/31 02:15:41;;;;;;;;;;;;;;;9.86;82.69;99968.47;4124376;28;20017;-67
2023/03/31 02:17:44;;;;;;;;;;;;;;;9.86;82.49;99962.25;4124915;28;20025;-68
2023/03/31 02:19:49;;;;;;;;;;;;;;;9.85;82.55;99961.41;4146460;28;20092;-66
2023/03/31 02:21:53;;;;;;;;;;;;;;;9.85;82.64;99961.41;4123265;28;20013;-67
2023/03/31 02:23:55;;;;;;;;;;;;;;;9.87;82.67;99961.22;4129972;28;20021;-68
2023/03/31 02:25:59;;;;;;;;;;;;;;;9.87;82.81;99958.50;4124287;28;20041;-67
2023/03/31 02:28:02;;;;;;;;;;;;;;;9.87;82.83;99945.03;4130305;28;20012;-68
2023/03/31 02:30:06;;;;;;;;;;;;;;;9.87;82.62;99953.13;4123744;28;20052;-68
2023/03/31 02:32:10;;;;;;;;;;;;;;;9.87;82.59;99951.28;4121774;28;20499;-68
2023/03/31 02:34:12;;;;;;;;;;;;;;;9.90;82.51;99950.03;4124470;28;20025;-68
2023/03/31 02:36:14;;;;;;;;;;;;;;;9.91;82.42;99946.31;4129702;28;20434;-67
2023/03/31 02:38:16;;;;;;;;;;;;;;;9.90;82.65;99944.63;4129013;28;20020;-68
2023/03/31 02:40:19;;;;;;;;;;;;;;;9.90;82.86;99939.25;4124010;28;20041;-66
2023/03/31 02:42:21;;;;;;;;;;;;;;;9.91;82.91;99940.94;4144609;28;20421;-67
2023/03/31 02:44:26;;;;;;;;;;;;;;;9.90;82.81;99937.38;4122195;28;20020;-68
2023/03/31 02:46:29;;;;;;;;;;;;;;;9.91;82.61;99930.13;4136654;28;20033;-67
2023/03/31 02:48:32;;;;;;;;;;;;;;;9.90;82.81;99937.38;4137870;28;20476;-67
2023/03/31 02:50:35;;;;;;;;;;;;;;;9.92;82.83;99938.03;4123673;28;20029;-67
2023/03/31 02:52:40;;;;;;;;;;;;;;;9.92;82.73;99923.69;4123891;28;20032;-67
2023/03/31 02:54:52;;;;;;;;;;;;;;;9.96;82.83;99924.16;4129705;28;20401;-68
2023/03/31 02:56:59;;;;;;;;;;;;;;;9.97;82.83;99923.97;4144399;28;20024;-68
2023/03/31 02:59:06;;;;;;;;;;;;;;;9.98;82.66;99922.09;4136492;28;20443;-67
2023/03/31 03:01:11;;;;;;;;;;;;;;;9.98;82.70;99927.50;4122803;28;21329;-67
2023/03/31 03:03:19;;;;;;;;;;;;;;;9.97;82.99;99917.72;4126631;28;20021;-67
2023/03/31 03:05:26;;;;;;;;;;;;;;;9.97;82.89;99915.03;4129331;28;20028;-68
2023/03/31 03:07:53;;;;;;;;;;;;;;;9.96;82.99;99913.38;4122449;28;19925;-68
2023/03/31 03:09:58;;;;;;;;;;;;;;;9.96;83.36;99916.91;4128421;28;20024;-68
2023/03/31 03:12:03;;;;;;;;;;;;;;;9.97;83.32;99910.50;4104992;28;19954;-67
2023/03/31 03:14:06;;;;;;;;;;;;;;;10.00;83.33;99907.41;4122788;28;20024;-68
2023/03/31 03:16:12;;;;;;;;;;;;;;;10.00;83.40;99903.84;4111416;28;20405;-68
2023/03/31 03:18:14;;;;;;;;;;;;;;;9.99;83.42;99911.13;4122127;28;19965;-67
2023/03/31 03:20:18;;;;;;;;;;;;;;;10.01;83.55;99905.53;4124501;28;20020;-68
2023/03/31 03:22:21;;;;;;;;;;;;;;;10.02;83.56;99910.72;4123031;28;20017;-68
2023/03/31 03:24:28;;;;;;;;;;;;;;;10.04;83.50;99910.53;4119313;28;19968;-67
2023/03/31 03:26:34;;;;;;;;;;;;;;;10.05;83.30;99906.81;4123495;28;20368;-67
2023/03/31 03:28:35;;;;;;;;;;;;;;;10.03;83.30;99901.63;4123457;28;20013;-67
2023/03/31 03:30:37;;;;;;;;;;;;;;;10.03;83.35;99898.91;4123725;28;20727;-67
2023/03/31 03:32:40;;;;;;;;;;;;;;;10.03;83.69;99895.38;4122853;28;20369;-67
2023/03/31 03:34:42;;;;;;;;;;;;;;;10.01;83.95;99889.34;4122892;28;20021;-67
2023/03/31 03:36:45;;;;;;;;;;;;;;;10.00;83.78;99891.22;4122607;28;20621;-67
2023/03/31 03:38:47;;;;;;;;;;;;;;;10.00;83.90;99890.38;4123197;28;20511;-67
2023/03/31 03:40:52;;;;;;;;;;;;;;;10.02;83.99;99883.75;4122948;28;20016;-66
2023/03/31 03:42:55;;;;;;;;;;;;;;;10.05;84.17;99882.53;4122907;28;20021;-66
2023/03/31 03:44:57;;;;;;;;;;;;;;;10.06;84.02;99879.66;4122853;28;20021;-66
2023/03/31 03:46:59;;;;;;;;;;;;;;;10.07;84.20;99881.28;4122352;28;20359;-65
2023/03/31 03:49:01;;;;;;;;;;;;;;;10.07;83.97;99873.19;4121775;28;20464;-65
2023/03/31 03:51:03;;;;;;;;;;;;;;;10.09;84.24;99873.00;4123260;28;20364;-66
2023/03/31 03:53:06;;;;;;;;;;;;;;;10.07;84.27;99870.50;4123233;28;20028;-66
2023/03/31 03:55:10;;;;;;;;;;;;;;;10.07;84.23;99870.50;4124067;28;20450;-66
2023/03/31 03:57:12;;;;;;;;;;;;;;;10.07;84.38;99869.69;4123585;28;20036;-65
2023/03/31 03:59:14;;;;;;;;;;;;;;;10.08;84.15;99858.69;4124417;28;20052;-65
2023/03/31 04:01:16;;;;;;;;;;;;;;;10.07;84.13;99857.00;4124400;28;20016;-65
2023/03/31 04:03:18;;;;;;;;;;;;;;;10.07;84.58;99861.59;4121547;28;20860;-65
2023/03/31 04:05:20;;;;;;;;;;;;;;;10.05;84.57;99864.47;4122953;28;20025;-66
2023/03/31 04:07:22;;;;;;;;;;;;;;;10.04;84.49;99862.81;4121906;28;20056;-65
2023/03/31 04:09:26;;;;;;;;;;;;;;;10.04;84.46;99859.28;4122256;28;20012;-66
2023/03/31 04:11:28;;;;;;;;;;;;;;;10.03;84.86;99855.75;4122702;28;20024;-66
2023/03/31 04:13:30;;;;;;;;;;;;;;;10.03;84.95;99863.84;4123129;28;20025;-66
2023/03/31 04:15:32;;;;;;;;;;;;;;;10.02;84.89;99859.47;4122879;28;20024;-66
2023/03/31 04:17:35;;;;;;;;;;;;;;;10.02;84.89;99859.47;4122199;28;20017;-65
2023/03/31 04:19:37;;;;;;;;;;;;;;;10.05;85.14;99859.09;4123280;28;20016;-67
2023/03/31 04:21:44;;;;;;;;;;;;;;;10.04;84.88;99854.72;4121237;28;20033;-67
2023/03/31 04:23:46;;;;;;;;;;;;;;;10.02;84.91;99847.84;4122080;28;20040;-67
2023/03/31 04:25:49;;;;;;;;;;;;;;;10.02;84.71;99840.59;4122083;28;19986;-67
2023/03/31 04:27:54;;;;;;;;;;;;;;;10.04;85.04;99843.09;4121481;28;20393;-67
2023/03/31 04:29:56;;;;;;;;;;;;;;;10.02;84.77;99837.88;4122516;28;20021;-67
2023/03/31 04:31:58;;;;;;;;;;;;;;;9.99;85.01;99835.59;4121540;28;20000;-68
2023/03/31 04:34:05;;;;;;;;;;;;;;;9.97;85.04;99847.59;4122329;28;20012;-68
2023/03/31 04:36:16;;;;;;;;;;;;;;;9.95;84.86;99828.06;4122253;28;20021;-68
2023/03/31 04:38:19;;;;;;;;;;;;;;;9.92;85.05;99832.00;4122766;28;20012;-68
2023/03/31 04:40:21;;;;;;;;;;;;;;;9.91;84.96;99838.44;4121647;28;20032;-68
2023/03/31 04:42:24;;;;;;;;;;;;;;;9.92;84.96;99827.44;4122234;28;19980;-67
2023/03/31 04:44:26;;;;;;;;;;;;;;;9.91;85.03;99823.06;4121772;28;20020;-67
2023/03/31 04:46:28;;;;;;;;;;;;;;;9.90;85.08;99816.00;4121835;28;19960;-68
2023/03/31 04:48:30;;;;;;;;;;;;;;;9.90;84.88;99815.16;4122799;28;20016;-69
2023/03/31 04:50:32;;;;;;;;;;;;;;;9.90;84.87;99807.91;4122106;28;20076;-68
2023/03/31 04:52:34;;;;;;;;;;;;;;;9.90;84.97;99812.47;4122164;28;20044;-68
2023/03/31 04:54:36;;;;;;;;;;;;;;;9.85;84.72;99813.06;4123031;28;20068;-68
2023/03/31 04:56:38;;;;;;;;;;;;;;;9.83;85.14;99804.34;4123155;28;20045;-68
2023/03/31 04:58:41;;;;;;;;;;;;;;;9.82;84.84;99807.22;4122239;28;20028;-68
2023/03/31 05:00:43;;;;;;;;;;;;;;;9.79;85.05;99802.22;4123033;28;20033;-67
2023/03/31 05:02:45;;;;;;;;;;;;;;;9.81;84.91;99792.06;4122211;28;20018;-68
2023/03/31 05:04:47;;;;;;;;;;;;;;;9.81;84.84;99790.22;4122398;28;20378;-68
2023/03/31 05:06:50;;;;;;;;;;;;;;;9.77;84.88;99796.19;4121943;28;20025;-68
2023/03/31 05:08:52;;;;;;;;;;;;;;;9.77;84.70;99791.63;4122114;28;20033;-69
2023/03/31 05:10:54;;;;;;;;;;;;;;;9.78;84.96;99784.38;4122189;28;20388;-68
2023/03/31 05:12:56;;;;;;;;;;;;;;;9.74;84.51;99784.75;4120988;28;20021;-68
2023/03/31 05:14:59;;;;;;;;;;;;;;;9.74;84.96;99773.16;4121655;28;20029;-68
2023/03/31 05:17:01;;;;;;;;;;;;;;;9.73;84.94;99775.03;4121679;28;20621;-68
2023/03/31 05:19:03;;;;;;;;;;;;;;;9.72;84.65;99769.81;4120996;28;20021;-68
2023/03/31 05:21:09;;;;;;;;;;;;;;;9.69;84.97;99765.66;4123333;28;20013;-68
2023/03/31 05:23:11;;;;;;;;;;;;;;;9.68;85.11;99768.53;4122246;28;20028;-68
2023/03/31 05:25:17;;;;;;;;;;;;;;;9.66;84.97;99763.34;4123702;28;20370;-68
2023/03/31 05:27:20;;;;;;;;;;;;;;;9.66;85.25;99776.00;4122062;28;20352;-68
2023/03/31 05:29:22;;;;;;;;;;;;;;;9.66;85.01;99773.28;4122704;28;20020;-69
2023/03/31 05:31:26;;;;;;;;;;;;;;;9.62;85.25;99770.13;4122018;28;20016;-67
2023/03/31 05:33:28;;;;;;;;;;;;;;;9.62;85.32;99759.34;4121871;28;20008;-68
2023/03/31 05:35:30;;;;;;;;;;;;;;;9.65;85.67;99767.06;4122859;28;20021;-69
2023/03/31 05:37:32;;;;;;;;;;;;;;;9.63;85.24;99762.91;4127374;28;20032;-69
2023/03/31 05:39:34;;;;;;;;;;;;;;;9.62;85.63;99758.53;4138725;28;20468;-68
2023/03/31 05:41:36;;;;;;;;;;;;;;;9.61;85.26;99752.31;4125679;28;20523;-68
2023/03/31 05:43:39;;;;;;;;;;;;;;;9.60;85.43;99753.34;4123736;28;20026;-68
2023/03/31 05:45:41;;;;;;;;;;;;;;;9.56;85.37;99744.81;4130537;28;20044;-69
2023/03/31 05:47:44;;;;;;;;;;;;;;;9.59;85.57;99751.66;4146326;28;20048;-69
2023/03/31 05:49:46;;;;;;;;;;;;;;;9.59;85.46;99748.13;4125460;28;20020;-68
2023/03/31 05:51:48;;;;;;;;;;;;;;;9.60;85.78;99744.41;4124899;28;20021;-68
2023/03/31 05:53:50;;;;;;;;;;;;;;;9.61;85.59;99737.97;4125748;28;20048;-68
2023/03/31 05:55:56;;;;;;;;;;;;;;;9.63;85.73;99736.75;4125973;28;21644;-69
2023/03/31 05:57:58;;;;;;;;;;;;;;;9.66;85.58;99733.69;4125379;28;20041;-69
2023/03/31 06:00:00;;;;;;;;;;;;;;;9.70;85.68;99732.28;4125072;28;20004;-68
2023/03/31 06:02:02;;;;;;;;;;;;;;;9.70;85.46;99726.03;4123419;28;20423;-68
2023/03/31 06:04:06;;;;;;;;;;;;;;;9.70;85.24;99731.41;4122117;28;20550;-68
2023/03/31 06:06:08;;;;;;;;;;;;;;;9.71;85.36;99731.22;4125052;28;20060;-68
2023/03/31 06:08:10;;;;;;;;;;;;;;;9.67;85.41;99715.63;4120922;28;20009;-68
2023/03/31 06:10:12;;;;;;;;;;;;;;;9.75;85.57;99729.00;4125153;28;20016;-68
2023/03/31 06:12:15;;;;;;;;;;;;;;;9.78;85.25;99715.13;4124516;28;20480;-69
2023/03/31 06:14:17;;;;;;;;;;;;;;;9.82;85.17;99720.94;4123639;28;20017;-69
2023/03/31 06:16:19;;;;;;;;;;;;;;;9.83;85.04;99718.03;4123748;28;20382;-67
2023/03/31 06:18:21;;;;;;;;;;;;;;;9.83;84.90;99718.03;4124877;28;20016;-68
2023/03/31 06:20:24;;;;;;;;;;;;;;;9.82;84.90;99707.44;4125513;28;20018;-68
2023/03/31 06:22:26;;;;;;;;;;;;;;;9.82;84.58;99708.28;4123103;28;20029;-68
2023/03/31 06:24:29;;;;;;;;;;;;;;;9.84;84.90;99703.53;4123142;28;20032;-68
2023/03/31 06:26:30;;;;;;;;;;;;;;;9.86;85.04;99706.03;4122001;28;20021;-68
2023/03/31 06:28:33;;;;;;;;;;;;;;;9.87;84.96;99697.75;4122155;28;20025;-68
2023/03/31 06:30:35;;;;;;;;;;;;;;;9.90;84.85;99693.81;4123665;28;20012;-69
2023/03/31 06:32:37;;;;;;;;;;;;;;;9.92;84.68;99695.28;4123246;28;20623;-68
2023/03/31 06:34:39;;;;;;;;;;;;;;;9.95;84.87;99688.63;4124737;28;20025;-68
2023/03/31 06:36:42;;;;;;;;;;;;;;;9.98;84.80;99688.25;4123547;28;20020;-68
2023/03/31 06:38:44;;;;;;;;;;;;;;;10.00;84.88;99686.19;4124620;28;20017;-68
2023/03/31 06:40:46;;;;;;;;;;;;;;;10.05;84.35;99682.91;4124635;28;20384;-68
2023/03/31 06:42:48;;;;;;;;;;;;;;;10.07;84.20;99687.06;4129590;28;20443;-68
2023/03/31 06:44:51;;;;;;;;;;;;;;;10.05;83.89;99686.44;4123367;28;20021;-68
2023/03/31 06:46:53;;;;;;;;;;;;;;;10.08;83.78;99683.31;4123761;28;20049;-68
2023/03/31 06:48:55;;;;;;;;;;;;;;;10.10;84.06;99677.72;4124066;28;20016;-69
2023/03/31 06:50:59;;;;;;;;;;;;;;;10.15;84.12;99682.53;4123353;28;20448;-68
2023/03/31 06:53:02;;;;;;;;;;;;;;;10.20;83.97;99688.16;4123066;28;20369;-68
2023/03/31 06:55:05;;;;;;;;;;;;;;;10.23;84.14;99676.97;4124285;28;20021;-68
2023/03/31 06:57:07;;;;;;;;;;;;;;;10.27;84.05;99680.94;4123708;28;20081;-68
2023/03/31 06:59:09;;;;;;;;;;;;;;;10.33;83.92;99684.69;4122796;28;20064;-68
2023/03/31 07:01:11;;;;;;;;;;;;;;;10.36;83.73;99678.91;4124828;28;20009;-68
2023/03/31 07:03:13;;;;;;;;;;;;;;;10.39;83.49;99679.34;4108815;28;21267;-69
2023/03/31 07:05:15;;;;;;;;;;;;;;;10.43;82.91;99669.81;4105548;28;19936;-68
2023/03/31 07:07:17;;;;;;;;;;;;;;;10.46;83.09;99664.00;4116700;28;20012;-69
2023/03/31 07:09:22;;;;;;;;;;;;;;;10.50;82.93;99659.03;4125089;28;20021;-68
2023/03/31 07:11:24;;;;;;;;;;;;;;;10.56;82.45;99663.59;4124379;28;20020;-68
2023/03/31 07:13:29;;;;;;;;;;;;;;;10.59;82.16;99663.19;4124851;28;19965;-68
2023/03/31 07:15:31;;;;;;;;;;;;;;;10.63;82.31;99669.88;4123579;28;20021;-68
2023/03/31 07:17:33;;;;;;;;;;;;;;;10.66;81.76;99670.50;4123594;28;20008;-68
2023/03/31 07:19:36;;;;;;;;;;;;;;;10.68;81.16;99658.47;4123907;28;20016;-68
2023/03/31 07:21:38;;;;;;;;;;;;;;;10.70;80.92;99655.56;4123292;28;20017;-69
2023/03/31 07:23:41;;;;;;;;;;;;;;;10.72;80.98;99657.03;4128889;28;20033;-68
2023/03/31 07:25:44;;;;;;;;;;;;;;;10.73;80.49;99652.44;4124473;28;20008;-68
2023/03/31 07:27:47;;;;;;;;;;;;;;;10.75;80.89;99650.38;4123915;28;20029;-67
2023/03/31 07:29:49;;;;;;;;;;;;;;;10.77;80.80;99653.72;4124671;28;20017;-67
2023/03/31 07:31:51;;;;;;;;;;;;;;;10.80;81.04;99647.91;4123598;28;20464;-67
2023/03/31 07:33:53;;;;;;;;;;;;;;;10.84;80.88;99651.00;4123792;28;20448;-67
2023/03/31 07:35:55;;;;;;;;;;;;;;;10.89;81.09;99643.94;4123455;28;20427;-68
2023/03/31 07:37:57;;;;;;;;;;;;;;;10.93;80.88;99647.09;4123293;28;20016;-67
2023/03/31 07:39:59;;;;;;;;;;;;;;;10.96;80.03;99647.50;4124696;28;20021;-67
2023/03/31 07:42:03;;;;;;;;;;;;;;;11.02;80.05;99636.88;4123434;28;20927;-67
2023/03/31 07:44:05;;;;;;;;;;;;;;;11.05;79.97;99640.03;4124456;28;20021;-67
2023/03/31 07:46:13;;;;;;;;;;;;;;;11.08;79.45;99633.34;4124317;28;20395;-67
2023/03/31 07:48:15;;;;;;;;;;;;;;;11.10;79.45;99629.41;4123553;28;20447;-67
2023/03/31 07:50:17;;;;;;;;;;;;;;;11.14;79.42;99622.56;4124186;28;20025;-66
2023/03/31 07:52:20;;;;;;;;;;;;;;;11.18;79.34;99617.56;4128061;28;20008;-66
2023/03/31 07:54:22;;;;;;;;;;;;;;;11.23;78.84;99623.16;4123851;28;20040;-66
2023/03/31 07:56:24;;;;;;;;;;;;;;;11.28;78.73;99614.44;4123437;28;20016;-66
2023/03/31 07:58:28;;;;;;;;;;;;;;;11.29;78.11;99627.75;4124281;28;20429;-66
2023/03/31 08:00:30;;;;;;;;;;;;;;;11.33;78.33;99620.03;4123672;28;20021;-66
2023/03/31 08:02:32;;;;;;;;;;;;;;;11.36;77.87;99623.19;4122922;28;20021;-67
2023/03/31 08:04:34;;;;;;;;;;;;;;;11.40;78.04;99618.19;4124104;28;20016;-67
2023/03/31 08:06:36;;;;;;;;;;;;;;;11.44;77.51;99613.16;4120391;28;20037;-68
2023/03/31 08:08:42;;;;;;;;;;;;;;;11.45;77.36;99604.84;4121675;28;20033;-68
2023/03/31 08:10:43;;;;;;;;;;;;;;;11.46;77.51;99608.41;4121621;28;20029;-68
2023/03/31 08:12:45;;;;;;;;;;;;;;;11.48;77.49;99601.72;4120146;28;20061;-68
2023/03/31 08:14:49;;;;;;;;;;;;;;;11.52;77.31;99610.28;4121635;28;20020;-68
2023/03/31 08:16:54;;;;;;;;;;;;;;;11.52;77.62;99596.75;4120864;28;20365;-68
2023/03/31 08:18:56;;;;;;;;;;;;;;;11.52;77.45;99596.75;4121823;28;20028;-68
2023/03/31 08:20:58;;;;;;;;;;;;;;;11.54;77.46;99597.34;4122803;28;20025;-68
2023/03/31 08:23:00;;;;;;;;;;;;;;;11.57;77.51;99590.69;4122358;28;20455;-68
2023/03/31 08:25:02;;;;;;;;;;;;;;;11.60;77.11;99593.81;4122536;28;20364;-67
2023/03/31 08:27:04;;;;;;;;;;;;;;;11.61;77.09;99594.63;4122666;28;20015;-68
2023/03/31 08:29:06;;;;;;;;;;;;;;;11.66;77.06;99590.25;4122965;28;20029;-68
2023/03/31 08:31:10;;;;;;;;;;;;;;;11.67;76.72;99586.50;4123342;28;20016;-68
2023/03/31 08:33:13;;;;;;;;;;;;;;;11.69;76.77;99591.69;4122301;28;20020;-68
2023/03/31 08:35:15;;;;;;;;;;;;;;;11.71;76.64;99584.22;4122654;28;20594;-68
2023/03/31 08:37:17;;;;;;;;;;;;;;;11.73;76.38;99579.41;4122217;28;20048;-68
2023/03/31 08:39:19;;;;;;;;;;;;;;;11.74;76.37;99570.25;4122966;28;20013;-68
2023/03/31 08:41:24;;;;;;;;;;;;;;;11.78;76.49;99567.94;4122216;28;20013;-68
2023/03/31 08:43:27;;;;;;;;;;;;;;;11.81;76.22;99583.75;4122567;28;20016;-68
2023/03/31 08:45:30;;;;;;;;;;;;;;;11.83;75.87;99560.88;4122743;28;20021;-69
2023/03/31 08:47:33;;;;;;;;;;;;;;;11.83;75.74;99562.72;4120262;28;20491;-68
2023/03/31 08:49:37;;;;;;;;;;;;;;;11.84;75.99;99565.22;4122044;28;20450;-68
2023/03/31 08:51:39;;;;;;;;;;;;;;;11.85;75.75;99563.38;4127318;28;20024;-68
2023/03/31 08:53:42;;;;;;;;;;;;;;;11.85;75.37;99557.94;4123322;28;20024;-68
2023/03/31 08:55:44;;;;;;;;;;;;;;;11.88;75.89;99552.09;4122196;28;20423;-69
2023/03/31 08:57:49;;;;;;;;;;;;;;;11.89;75.64;99559.97;4122544;28;20041;-68
2023/03/31 08:59:51;;;;;;;;;;;;;;;11.92;75.88;99549.81;4122744;28;20021;-68
2023/03/31 09:01:55;;;;;;;;;;;;;;;11.93;75.75;99540.66;4121186;28;20355;-68
2023/03/31 09:04:05;;;;;;;;;;;;;;;11.95;75.69;99535.88;4122259;28;20017;-68
2023/03/31 09:06:07;;;;;;;;;;;;;;;11.96;75.39;99551.03;4122555;28;20353;-67
2023/03/31 09:08:12;;;;;;;;;;;;;;;11.95;75.49;99542.09;4121557;28;20468;-68
2023/03/31 09:10:20;;;;;;;;;;;;;;;11.97;75.52;99539.19;4122940;28;20024;-67
2023/03/31 09:12:23;;;;;;;;;;;;;;;11.96;75.39;99541.06;4121730;28;20025;-68
2023/03/31 09:14:27;;;;;;;;;;;;;;;12.00;75.02;99530.63;4124024;28;20053;-68
2023/03/31 09:16:31;;;;;;;;;;;;;;;12.01;75.14;99526.88;4124711;28;20016;-67
2023/03/31 09:18:34;;;;;;;;;;;;;;;12.04;75.22;99521.88;4124809;28;20009;-67
2023/03/31 09:20:38;;;;;;;;;;;;;;;12.10;75.24;99519.34;4124234;28;20037;-67
2023/03/31 09:22:41;;;;;;;;;;;;;;;12.13;74.94;99519.75;4124088;28;19926;-67
2023/03/31 09:24:46;;;;;;;;;;;;;;;12.18;75.06;99516.41;4125560;28;20045;-67
2023/03/31 09:26:49;;;;;;;;;;;;;;;12.18;74.29;99511.81;4124805;28;20362;-67
2023/03/31 09:28:51;;;;;;;;;;;;;;;12.18;74.55;99509.09;4125403;28;20365;-68
2023/03/31 09:30:53;;;;;;;;;;;;;;;12.21;74.60;99514.06;4125812;28;20032;-68
2023/03/31 09:32:58;;;;;;;;;;;;;;;12.23;74.71;99490.31;4124919;28;20364;-68
2023/03/31 09:35:01;;;;;;;;;;;;;;;12.27;74.55;99498.81;4125530;28;20028;-67
2023/03/31 09:37:04;;;;;;;;;;;;;;;12.26;74.41;99486.34;4125100;28;20472;-67
2023/03/31 09:39:06;;;;;;;;;;;;;;;12.29;74.08;99485.91;4125986;28;20428;-68
2023/03/31 09:41:08;;;;;;;;;;;;;;;12.29;74.04;99483.22;4125496;28;20025;-68
2023/03/31 09:43:15;;;;;;;;;;;;;;;12.33;74.19;99481.69;4125078;28;20016;-67
2023/03/31 09:45:17;;;;;;;;;;;;;;;12.36;73.48;99486.69;4125981;28;20016;-67
2023/03/31 09:47:21;;;;;;;;;;;;;;;12.36;73.30;99465.00;4125010;28;20813;-67
2023/03/31 09:49:24;;;;;;;;;;;;;;;12.36;73.11;99470.44;4124991;28;20028;-68
2023/03/31 09:51:28;;;;;;;;;;;;;;;12.38;73.52;99468.34;4139396;28;20023;-67
2023/03/31 09:53:33;;;;;;;;;;;;;;;12.39;73.31;99461.88;4124974;28;20020;-68
2023/03/31 09:55:37;;;;;;;;;;;;;;;12.41;73.65;99457.09;4125250;28;20032;-67
2023/03/31 09:57:39;;;;;;;;;;;;;;;12.42;73.36;99466.03;4125379;28;20357;-68
2023/03/31 09:59:42;;;;;;;;;;;;;;;12.46;72.81;99469.97;4125281;28;20037;-68
2023/03/31 10:01:45;;;;;;;;;;;;;;;12.47;72.76;99454.53;4125073;28;20107;-68
2023/03/31 10:03:48;;;;;;;;;;;;;;;12.48;72.81;99448.91;4124464;28;20016;-68
2023/03/31 10:05:50;;;;;;;;;;;;;;;12.46;72.99;99444.75;4124586;28;20020;-68
2023/03/31 10:07:53;;;;;;;;;;;;;;;12.46;72.99;99442.03;4124505;28;20001;-68
2023/03/31 10:09:57;;;;;;;;;;;;;;;12.48;73.30;99442.66;4125527;28;19926;-68
2023/03/31 10:11:59;;;;;;;;;;;;;;;12.48;73.58;99456.19;4124608;28;20016;-68
2023/03/31 10:14:02;;;;;;;;;;;;;;;12.48;73.12;99440.78;4123666;28;20013;-68
2023/03/31 10:16:07;;;;;;;;;;;;;;;12.50;72.85;99445.97;4125197;28;20041;-69
2023/03/31 10:18:12;;;;;;;;;;;;;;;12.49;73.21;99430.75;4124823;28;20017;-68
2023/03/31 10:20:19;;;;;;;;;;;;;;;12.50;73.72;99422.41;4125372;28;20025;-68
2023/03/31 10:22:28;;;;;;;;;;;;;;;12.53;73.69;99415.75;4123932;28;20013;-68
2023/03/31 10:24:36;;;;;;;;;;;;;;;12.56;73.36;99410.69;4124088;28;20020;-69
2023/03/31 10:26:39;;;;;;;;;;;;;;;12.61;73.51;99407.31;4121784;28;20048;-68
2023/03/31 10:28:41;;;;;;;;;;;;;;;12.66;73.22;99410.19;4121792;28;20041;-68
2023/03/31 10:30:47;;;;;;;;;;;;;;;12.68;72.67;99404.53;4122684;28;20036;-69
2023/03/31 10:32:49;;;;;;;;;;;;;;;12.71;72.56;99401.38;4121276;28;20009;-69
2023/03/31 10:34:51;;;;;;;;;;;;;;;12.73;72.17;99404.72;4121956;28;20463;-68
2023/03/31 10:36:53;;;;;;;;;;;;;;;12.77;72.20;99408.63;4121938;28;20016;-68
2023/03/31 10:38:55;;;;;;;;;;;;;;;12.76;71.69;99393.44;4121903;28;20457;-68
2023/03/31 10:40:58;;;;;;;;;;;;;;;12.76;71.79;99398.84;4122651;28;20028;-68
2023/03/31 10:43:03;;;;;;;;;;;;;;;12.77;72.12;99395.91;4123761;28;20012;-68